createdAt,value
2023-04-30T00:01:16.009Z,6.95
2023-04-30T00:03:43.467Z,6.40
2023-04-30T00:06:10.960Z,5.50
2023-04-30T00:08:38.334Z,7.38
2023-04-30T00:11:05.805Z,4.95
2023-04-30T00:13:35.839Z,6.50
2023-04-30T00:16:03.218Z,7.88
2023-04-30T00:18:33.595Z,4.00
2023-04-30T00:21:01.004Z,3.55
2023-04-30T00:23:28.408Z,5.68
2023-04-30T00:25:55.778Z,4.22
2023-04-30T00:28:23.190Z,3.75
2023-04-30T00:30:50.812Z,5.63
2023-04-30T00:33:18.407Z,6.20
2023-04-30T00:35:45.825Z,8.57
2023-04-30T00:38:13.188Z,6.45
2023-04-30T00:40:44.448Z,6.18
2023-04-30T00:43:11.836Z,7.40
2023-04-30T00:45:39.236Z,6.38
2023-04-30T00:48:06.715Z,6.80
2023-04-30T00:50:36.812Z,6.60
2023-04-30T00:53:04.432Z,8.52
2023-04-30T00:55:31.790Z,6.13
2023-04-30T00:57:59.459Z,8.25
2023-04-30T01:00:27.800Z,7.38
2023-04-30T01:02:57.081Z,6.57
2023-04-30T01:05:24.556Z,7.13
2023-04-30T01:07:51.998Z,6.50
2023-04-30T01:10:19.788Z,6.30
2023-04-30T01:13:05.984Z,9.27
2023-04-30T01:15:36.490Z,6.63
2023-04-30T01:18:03.916Z,5.43
2023-04-30T01:20:31.984Z,6.18
2023-04-30T01:23:28.518Z,6.55
2023-04-30T01:25:55.994Z,6.90
2023-04-30T01:28:25.019Z,6.45
2023-04-30T01:30:53.221Z,6.68
2023-04-30T01:33:20.937Z,8.38
2023-04-30T01:35:48.238Z,6.45
2023-04-30T01:38:34.165Z,7.00
2023-04-30T01:41:11.075Z,7.32
2023-04-30T01:43:46.574Z,5.88
2023-04-30T01:46:22.792Z,5.55
2023-04-30T01:48:53.064Z,6.72
2023-04-30T01:51:23.336Z,7.55
2023-04-30T01:53:50.830Z,4.85
2023-04-30T01:56:19.947Z,6.22
2023-04-30T01:58:48.122Z,5.82
2023-04-30T02:01:27.802Z,5.25
2023-04-30T02:03:55.392Z,4.95
2023-04-30T02:06:23.213Z,6.00
2023-04-30T02:08:50.557Z,5.57
2023-04-30T02:11:17.941Z,4.88
2023-04-30T02:13:45.265Z,5.25
2023-04-30T02:16:12.611Z,5.00
2023-04-30T02:18:40.062Z,4.18
2023-04-30T02:21:07.396Z,6.07
2023-04-30T02:23:34.739Z,6.40
2023-04-30T02:26:03.233Z,3.95
2023-04-30T02:28:30.849Z,4.28
2023-04-30T02:30:58.276Z,4.03
2023-04-30T02:33:25.990Z,4.10
2023-04-30T02:35:55.316Z,4.68
2023-04-30T02:38:22.732Z,4.38
2023-04-30T02:40:50.123Z,4.03
2023-04-30T02:43:17.465Z,3.90
2023-04-30T02:45:44.875Z,5.30
2023-04-30T02:48:12.392Z,4.03
2023-04-30T02:50:39.805Z,4.93
2023-04-30T02:53:07.215Z,4.32
2023-04-30T02:55:34.577Z,4.40
2023-04-30T02:58:01.967Z,4.72
2023-04-30T03:00:29.357Z,4.30
2023-04-30T03:02:57.034Z,4.18
2023-04-30T03:05:25.054Z,6.38
2023-04-30T03:07:52.355Z,5.13
2023-04-30T03:10:19.758Z,5.30
2023-04-30T03:12:47.142Z,5.70
2023-04-30T03:15:14.730Z,6.38
2023-04-30T03:17:43.890Z,6.93
2023-04-30T03:20:14.248Z,5.90
2023-04-30T03:22:42.036Z,5.82
2023-04-30T03:25:09.746Z,6.30
2023-04-30T03:27:37.048Z,5.20
2023-04-30T03:30:04.485Z,6.82
2023-04-30T03:32:31.866Z,8.15
2023-04-30T03:34:59.183Z,6.65
2023-04-30T03:37:26.531Z,5.50
2023-04-30T03:39:54.050Z,5.57
2023-04-30T03:42:21.814Z,7.20
2023-04-30T03:44:49.196Z,6.25
2023-04-30T03:47:16.561Z,5.18
2023-04-30T03:49:43.903Z,5.13
2023-04-30T03:52:11.434Z,4.93
2023-04-30T03:54:38.866Z,6.93
2023-04-30T03:57:08.073Z,4.38
2023-04-30T03:59:35.636Z,4.32
2023-04-30T04:02:03.040Z,5.10
2023-04-30T04:04:31.129Z,4.97
2023-04-30T04:06:58.638Z,4.57
2023-04-30T04:09:26.264Z,5.60
2023-04-30T04:11:53.613Z,5.93
2023-04-30T04:14:20.932Z,4.93
2023-04-30T04:16:48.279Z,3.92
2023-04-30T04:19:15.599Z,6.18
2023-04-30T04:21:43.020Z,6.47
2023-04-30T04:24:10.673Z,5.57
2023-04-30T04:26:38.475Z,6.25
2023-04-30T04:29:05.835Z,4.57
2023-04-30T04:31:33.248Z,5.75
2023-04-30T04:34:01.075Z,8.77
2023-04-30T04:36:29.156Z,4.82
2023-04-30T04:38:57.832Z,4.75
2023-04-30T04:41:26.852Z,4.82
2023-04-30T04:43:54.209Z,6.43
2023-04-30T04:46:22.818Z,5.03
2023-04-30T04:48:50.419Z,4.85
2023-04-30T04:51:17.744Z,5.10
2023-04-30T04:53:45.097Z,5.68
2023-04-30T04:56:13.146Z,10.48
2023-04-30T04:58:40.542Z,5.75
2023-04-30T05:01:07.899Z,7.13
2023-04-30T05:03:37.216Z,6.35
2023-04-30T05:06:04.965Z,5.80
2023-04-30T05:08:32.627Z,7.40
2023-04-30T05:10:59.961Z,7.68
2023-04-30T05:13:27.313Z,8.88
2023-04-30T05:15:54.839Z,6.40
2023-04-30T05:18:22.190Z,5.40
2023-04-30T05:20:49.706Z,3.97
2023-04-30T05:23:17.023Z,4.60
2023-04-30T05:25:44.548Z,4.43
2023-04-30T05:28:12.068Z,5.90
2023-04-30T05:30:39.430Z,3.80
2023-04-30T05:33:06.801Z,4.20
2023-04-30T05:35:36.317Z,5.80
2023-04-30T05:38:04.093Z,6.22
2023-04-30T05:40:31.518Z,4.00
2023-04-30T05:42:58.964Z,5.72
2023-04-30T05:45:27.113Z,4.22
2023-04-30T05:47:54.580Z,4.63
2023-04-30T05:50:21.969Z,4.10
2023-04-30T05:52:49.281Z,5.00
2023-04-30T05:55:16.671Z,5.30
2023-04-30T05:57:43.986Z,3.40
2023-04-30T06:00:11.590Z,5.40
2023-04-30T06:02:39.156Z,6.90
2023-04-30T06:05:08.148Z,6.28
2023-04-30T06:07:35.740Z,5.85
2023-04-30T06:10:03.136Z,6.30
2023-04-30T06:12:31.056Z,6.05
2023-04-30T06:14:58.482Z,5.15
2023-04-30T06:17:25.932Z,6.38
2023-04-30T06:19:53.548Z,7.55
2023-04-30T06:22:21.003Z,7.47
2023-04-30T06:24:48.290Z,6.90
2023-04-30T06:27:15.976Z,5.28
2023-04-30T06:29:43.304Z,7.20
2023-04-30T06:32:10.707Z,5.38
2023-04-30T06:34:38.682Z,9.73
2023-04-30T06:37:06.123Z,7.97
2023-04-30T06:39:33.482Z,8.70
2023-04-30T06:42:01.295Z,7.70
2023-04-30T06:44:28.668Z,10.38
2023-04-30T06:46:56.068Z,6.43
2023-04-30T06:49:23.507Z,11.90
2023-04-30T06:51:51.229Z,9.43
2023-04-30T06:54:18.567Z,11.88
2023-04-30T06:56:45.947Z,8.48
2023-04-30T06:59:13.308Z,11.73
2023-04-30T07:01:41.143Z,14.43
2023-04-30T07:04:08.617Z,12.05
2023-04-30T07:06:36.113Z,14.73
2023-04-30T07:09:06.510Z,13.50
2023-04-30T07:11:33.859Z,12.77
2023-04-30T07:14:01.195Z,11.48
2023-04-30T07:16:28.821Z,9.95
2023-04-30T07:18:56.257Z,10.85
2023-04-30T07:21:25.726Z,9.65
2023-04-30T07:23:53.033Z,12.50
2023-04-30T07:26:21.202Z,10.80
2023-04-30T07:28:50.066Z,10.95
2023-04-30T07:31:17.527Z,9.98
2023-04-30T07:33:45.126Z,8.80
2023-04-30T07:36:12.583Z,10.00
2023-04-30T07:38:39.909Z,11.48
2023-04-30T07:41:08.371Z,11.90
2023-04-30T07:43:36.210Z,13.50
2023-04-30T07:46:04.381Z,10.43
2023-04-30T07:48:31.980Z,12.43
2023-04-30T07:50:59.340Z,9.25
2023-04-30T07:53:26.846Z,14.00
2023-04-30T07:55:54.217Z,12.48
2023-04-30T07:58:21.530Z,13.25
2023-04-30T08:00:49.098Z,11.60
2023-04-30T08:03:16.536Z,11.45
2023-04-30T08:05:44.138Z,10.20
2023-04-30T08:08:11.525Z,9.05
2023-04-30T08:10:42.040Z,8.98
2023-04-30T08:13:09.364Z,10.43
2023-04-30T08:15:38.009Z,10.43
2023-04-30T08:18:06.071Z,9.35
2023-04-30T08:20:34.546Z,7.90
2023-04-30T08:23:02.985Z,12.25
2023-04-30T08:25:31.845Z,12.75
2023-04-30T08:27:59.922Z,9.52
2023-04-30T08:30:27.379Z,7.50
2023-04-30T08:32:56.745Z,9.60
2023-04-30T08:35:24.990Z,8.88
2023-04-30T08:37:53.491Z,8.95
2023-04-30T08:40:23.486Z,8.88
2023-04-30T08:42:56.589Z,8.13
2023-04-30T08:45:24.426Z,8.50
2023-04-30T08:47:53.068Z,12.82
2023-04-30T08:50:20.672Z,10.60
2023-04-30T08:52:48.112Z,10.20
2023-04-30T08:55:15.728Z,7.90
2023-04-30T08:57:43.098Z,10.00
2023-04-30T09:00:10.668Z,8.25
2023-04-30T09:02:44.529Z,9.80
2023-04-30T09:05:15.929Z,9.00
2023-04-30T09:08:01.066Z,8.63
2023-04-30T09:10:32.753Z,9.48
2023-04-30T09:13:01.611Z,7.35
2023-04-30T09:15:29.418Z,8.68
2023-04-30T09:18:10.458Z,9.23
2023-04-30T09:20:38.830Z,10.57
2023-04-30T09:23:10.104Z,9.85
2023-04-30T09:25:43.999Z,9.55
2023-04-30T09:28:12.042Z,7.97
2023-04-30T09:30:42.849Z,8.77
2023-04-30T09:33:12.159Z,8.52
2023-04-30T09:35:42.126Z,9.60
2023-04-30T09:38:25.709Z,6.38
2023-04-30T09:40:53.069Z,8.05
2023-04-30T09:43:20.498Z,6.32
2023-04-30T09:45:49.973Z,6.70
2023-04-30T09:48:18.087Z,7.10
2023-04-30T09:50:47.408Z,6.60
2023-04-30T09:56:26.348Z,5.93
2023-04-30T09:58:57.452Z,7.63
2023-04-30T10:01:27.795Z,5.82
2023-04-30T10:03:55.976Z,5.85
2023-04-30T10:06:23.811Z,6.72
2023-04-30T10:08:57.620Z,7.32
2023-04-30T10:11:28.857Z,7.03
2023-04-30T10:14:04.413Z,5.25
2023-04-30T10:16:50.699Z,4.72
2023-04-30T10:19:21.443Z,5.28
2023-04-30T10:21:49.317Z,6.97
2023-04-30T10:24:20.112Z,4.05
2023-04-30T10:26:48.069Z,4.93
2023-04-30T10:29:16.401Z,6.40
2023-04-30T10:31:48.400Z,5.40
2023-04-30T10:34:15.760Z,5.75
2023-04-30T10:36:51.537Z,5.55
2023-04-30T10:39:19.895Z,6.15
2023-04-30T10:41:47.544Z,5.53
2023-04-30T10:44:15.007Z,5.95
2023-04-30T10:46:42.595Z,4.07
2023-04-30T10:49:10.552Z,4.63
2023-04-30T10:51:55.124Z,7.82
2023-04-30T10:54:29.596Z,4.03
2023-04-30T10:57:20.397Z,5.60
2023-04-30T11:00:15.214Z,6.90
2023-04-30T11:02:48.650Z,5.47
2023-04-30T11:05:18.268Z,9.57
2023-04-30T11:07:52.918Z,5.72
2023-04-30T11:10:24.171Z,6.32
2023-04-30T11:12:53.434Z,5.72
2023-04-30T11:15:21.576Z,5.68
2023-04-30T11:17:50.265Z,4.00
2023-04-30T11:20:21.682Z,3.85
2023-04-30T11:22:49.146Z,6.63
2023-04-30T11:25:23.504Z,9.35
2023-04-30T11:27:51.233Z,7.00
2023-04-30T11:30:19.341Z,4.55
2023-04-30T11:32:47.987Z,6.22
2023-04-30T11:35:18.532Z,8.75
2023-04-30T11:37:46.594Z,5.80
2023-04-30T11:40:14.817Z,5.32
2023-04-30T11:42:47.121Z,4.88
2023-04-30T11:45:18.121Z,5.40
2023-04-30T11:47:52.675Z,4.53
2023-04-30T11:50:22.439Z,5.80
2023-04-30T11:52:51.179Z,5.80
2023-04-30T11:55:19.721Z,5.75
2023-04-30T11:57:48.076Z,5.00
2023-04-30T12:00:16.658Z,4.10
2023-04-30T12:02:46.232Z,4.72
2023-04-30T12:05:17.997Z,5.60
2023-04-30T12:07:49.553Z,6.60
2023-04-30T12:10:17.433Z,3.80
2023-04-30T12:12:45.259Z,5.70
2023-04-30T12:15:13.940Z,4.80
2023-04-30T12:17:41.532Z,5.78
2023-04-30T12:20:09.859Z,5.47
2023-04-30T12:22:40.416Z,5.57
2023-04-30T12:25:14.184Z,5.72
2023-04-30T12:27:42.376Z,4.88
2023-04-30T12:30:10.386Z,3.90
2023-04-30T12:32:41.325Z,5.53
2023-04-30T12:35:09.276Z,9.90
2023-04-30T12:37:36.678Z,5.10
2023-04-30T12:40:04.157Z,3.15
2023-04-30T12:42:34.631Z,4.25
2023-04-30T12:45:02.480Z,3.28
2023-04-30T12:47:30.337Z,5.20
2023-04-30T12:49:57.961Z,5.55
2023-04-30T12:52:26.834Z,3.75
2023-04-30T12:54:55.212Z,4.30
2023-04-30T12:57:22.701Z,4.07
2023-04-30T12:59:53.412Z,4.97
2023-04-30T13:02:24.125Z,6.85
2023-04-30T13:04:52.118Z,3.20
2023-04-30T13:07:19.490Z,5.75
2023-04-30T13:09:46.889Z,3.00
2023-04-30T13:12:15.206Z,5.30
2023-04-30T13:14:42.655Z,1.95
2023-04-30T13:17:12.570Z,2.97
2023-04-30T13:19:39.959Z,3.38
2023-04-30T13:22:07.490Z,3.97
2023-04-30T13:24:34.860Z,2.78
2023-04-30T13:27:02.945Z,2.25
2023-04-30T13:29:30.374Z,4.80
2023-04-30T13:31:57.749Z,3.90
2023-04-30T13:34:25.245Z,3.88
2023-04-30T13:36:53.682Z,3.78
2023-04-30T13:39:22.124Z,4.80
2023-04-30T13:41:49.509Z,2.53
2023-04-30T13:44:17.532Z,4.13
2023-04-30T13:46:45.070Z,7.03
2023-04-30T13:49:12.471Z,4.22
2023-04-30T13:51:39.833Z,5.10
2023-04-30T13:54:07.212Z,4.97
2023-04-30T13:56:37.335Z,5.38
2023-04-30T13:59:04.842Z,7.00
2023-04-30T14:01:33.782Z,4.40
2023-04-30T14:04:02.210Z,3.78
2023-04-30T14:06:29.862Z,6.00
2023-04-30T14:08:57.442Z,6.78
2023-04-30T14:11:24.835Z,5.07
2023-04-30T14:13:52.750Z,4.60
2023-04-30T14:16:21.085Z,4.63
2023-04-30T14:18:48.438Z,4.10
2023-04-30T14:21:16.006Z,4.00
2023-04-30T14:23:46.735Z,3.80
2023-04-30T14:26:14.373Z,5.10
2023-04-30T14:28:41.793Z,5.10
2023-04-30T14:31:10.573Z,5.40
2023-04-30T14:33:37.911Z,4.63
2023-04-30T14:36:05.446Z,3.25
2023-04-30T14:38:32.806Z,5.75
2023-04-30T14:41:00.207Z,4.07
2023-04-30T14:43:27.554Z,5.00
2023-04-30T14:45:55.033Z,5.15
2023-04-30T14:48:22.514Z,3.13
2023-04-30T14:50:49.965Z,3.20
2023-04-30T14:53:17.368Z,5.47
2023-04-30T14:55:44.765Z,5.50
2023-04-30T14:58:12.542Z,4.47
2023-04-30T15:00:39.975Z,3.58
2023-04-30T15:03:07.862Z,4.20
2023-04-30T15:05:35.599Z,4.28
2023-04-30T15:08:03.010Z,5.32
2023-04-30T15:10:30.448Z,4.35
2023-04-30T15:12:57.838Z,4.68
2023-04-30T15:15:28.411Z,4.18
2023-04-30T15:17:59.157Z,5.68
2023-04-30T15:20:27.011Z,5.03
2023-04-30T15:22:55.171Z,5.45
2023-04-30T15:25:24.295Z,4.90
2023-04-30T15:27:54.780Z,4.40
2023-04-30T15:30:22.300Z,4.85
2023-04-30T15:32:50.410Z,5.40
2023-04-30T15:35:18.048Z,4.50
2023-04-30T15:37:45.822Z,6.00
2023-04-30T15:40:15.724Z,4.28
2023-04-30T15:42:43.380Z,4.18
2023-04-30T15:45:11.074Z,4.35
2023-04-30T15:47:38.699Z,4.68
2023-04-30T15:50:06.335Z,10.95
2023-04-30T15:52:33.677Z,7.20
2023-04-30T15:55:01.123Z,6.22
2023-04-30T15:57:28.499Z,13.43
2023-04-30T15:59:56.370Z,6.18
2023-04-30T16:02:24.001Z,4.85
2023-04-30T16:04:51.377Z,11.95
2023-04-30T16:07:18.678Z,5.28
2023-04-30T16:09:49.182Z,7.70
2023-04-30T16:12:16.742Z,11.80
2023-04-30T16:14:44.088Z,11.85
2023-04-30T16:17:11.449Z,3.78
2023-04-30T16:19:38.886Z,4.43
2023-04-30T16:22:06.362Z,4.82
2023-04-30T16:24:33.680Z,5.50
2023-04-30T16:27:01.371Z,4.25
2023-04-30T16:29:28.898Z,3.88
2023-04-30T16:31:56.587Z,6.07
2023-04-30T16:34:24.274Z,4.30
2023-04-30T16:36:51.607Z,5.90
2023-04-30T16:39:19.000Z,3.47
2023-04-30T16:41:46.324Z,3.80
2023-04-30T16:44:13.757Z,7.32
2023-04-30T16:46:41.082Z,4.18
2023-04-30T16:49:08.427Z,5.50
2023-04-30T16:51:35.817Z,4.90
2023-04-30T16:54:03.209Z,3.70
2023-04-30T16:56:30.799Z,5.38
2023-04-30T16:58:58.205Z,6.50
2023-04-30T17:01:25.580Z,4.20
2023-04-30T17:03:52.979Z,3.08
2023-04-30T17:06:20.422Z,5.85
2023-04-30T17:08:48.270Z,3.13
2023-04-30T17:11:19.309Z,3.10
2023-04-30T17:13:46.758Z,4.43
2023-04-30T17:16:14.198Z,3.78
2023-04-30T17:18:42.011Z,4.00
2023-04-30T17:21:09.418Z,5.25
2023-04-30T17:23:36.811Z,6.75
2023-04-30T17:26:04.387Z,4.03
2023-04-30T17:28:32.981Z,5.93
2023-04-30T17:31:06.868Z,3.72
2023-04-30T17:33:34.608Z,4.10
2023-04-30T17:36:02.016Z,3.80
2023-04-30T17:38:29.425Z,3.92
2023-04-30T17:40:57.823Z,2.97
2023-04-30T17:43:25.497Z,3.20
2023-04-30T17:45:53.668Z,4.65
2023-04-30T17:48:21.227Z,2.85
2023-04-30T17:50:48.653Z,3.58
2023-04-30T17:53:16.219Z,2.17
2023-04-30T17:55:43.628Z,3.33
2023-04-30T17:58:11.725Z,4.28
2023-04-30T18:00:39.724Z,4.13
2023-04-30T18:03:07.397Z,4.47
2023-04-30T18:05:35.870Z,1.95
2023-04-30T18:08:03.568Z,3.75
2023-04-30T18:10:31.006Z,6.00
2023-04-30T18:12:59.710Z,8.23
2023-04-30T18:15:29.903Z,6.15
2023-04-30T18:17:59.393Z,5.55
2023-04-30T18:20:26.897Z,4.43
2023-04-30T18:22:54.328Z,4.10
2023-04-30T18:25:22.147Z,4.85
2023-04-30T18:27:49.730Z,4.93
2023-04-30T18:30:17.035Z,4.55
2023-04-30T18:32:44.480Z,4.65
2023-04-30T18:35:11.883Z,3.80
2023-04-30T18:37:39.324Z,3.78
2023-04-30T18:40:07.132Z,4.38
2023-04-30T18:42:34.912Z,3.78
2023-04-30T18:45:02.347Z,5.25
2023-04-30T18:47:31.066Z,4.97
2023-04-30T18:49:58.942Z,5.10
2023-04-30T18:52:26.287Z,6.20
2023-04-30T18:54:53.758Z,8.52
2023-04-30T18:57:21.077Z,6.75
2023-04-30T18:59:49.036Z,6.93
2023-04-30T19:02:16.720Z,5.18
2023-04-30T19:04:44.212Z,4.35
2023-04-30T19:07:12.267Z,4.15
2023-04-30T19:09:39.613Z,2.95
2023-04-30T19:12:07.032Z,5.57
2023-04-30T19:14:34.437Z,5.93
2023-04-30T19:17:01.787Z,4.28
2023-04-30T19:19:29.216Z,9.18
2023-04-30T19:21:56.849Z,5.15
2023-04-30T19:24:25.492Z,9.95
2023-04-30T19:26:52.826Z,5.80
2023-04-30T19:29:20.233Z,7.97
2023-04-30T19:31:47.719Z,6.60
2023-04-30T19:34:16.170Z,4.80
2023-04-30T19:36:46.623Z,4.10
2023-04-30T19:39:14.079Z,9.77
2023-04-30T19:41:41.613Z,8.15
2023-04-30T19:44:10.329Z,4.25
2023-04-30T19:46:37.749Z,5.43
2023-04-30T19:49:05.091Z,6.18
2023-04-30T19:51:32.489Z,5.47
2023-04-30T19:53:59.857Z,5.25
2023-04-30T19:56:27.328Z,4.40
2023-04-30T19:58:54.753Z,5.53
2023-04-30T20:01:22.110Z,4.18
2023-04-30T20:03:49.641Z,5.90
2023-04-30T20:06:17.108Z,7.90
2023-04-30T20:08:44.426Z,8.70
2023-04-30T20:11:11.788Z,6.32
2023-04-30T20:13:39.150Z,5.32
2023-04-30T20:16:06.888Z,6.70
2023-04-30T20:18:34.269Z,3.83
2023-04-30T20:21:01.755Z,5.55
2023-04-30T20:23:29.099Z,7.30
2023-04-30T20:25:56.424Z,4.35
2023-04-30T20:28:23.791Z,4.75
2023-04-30T20:30:51.736Z,6.85
2023-04-30T20:33:19.132Z,7.05
2023-04-30T20:35:47.563Z,6.28
2023-04-30T20:38:19.562Z,4.68
2023-04-30T20:40:47.328Z,3.47
2023-04-30T20:43:14.823Z,3.90
2023-04-30T20:45:44.778Z,6.63
2023-04-30T20:48:12.253Z,4.78
2023-04-30T20:50:40.244Z,3.88
2023-04-30T20:53:10.231Z,5.18
2023-04-30T20:55:38.458Z,4.10
2023-04-30T20:58:05.912Z,3.30
2023-04-30T21:00:33.265Z,5.35
2023-04-30T21:03:00.885Z,6.47
2023-04-30T21:05:29.197Z,3.60
2023-04-30T21:08:01.392Z,4.80
2023-04-30T21:10:36.355Z,4.63
2023-04-30T21:13:05.469Z,3.60
2023-04-30T21:15:33.279Z,4.05
2023-04-30T21:18:00.818Z,5.60
2023-04-30T21:20:28.341Z,3.78
2023-04-30T21:22:56.799Z,5.57
2023-04-30T21:25:24.175Z,7.95
2023-04-30T21:27:52.452Z,6.55
2023-04-30T21:30:23.510Z,8.50
2023-04-30T21:32:58.286Z,4.25
2023-04-30T21:35:27.576Z,5.43
2023-04-30T21:37:55.164Z,4.63
2023-04-30T21:40:22.577Z,5.55
2023-04-30T21:42:50.082Z,5.78
2023-04-30T21:45:17.473Z,4.80
2023-04-30T21:47:45.485Z,5.15
2023-04-30T21:50:13.670Z,5.22
2023-04-30T21:52:41.557Z,5.00
2023-04-30T21:55:09.726Z,4.82
2023-04-30T21:57:37.081Z,5.28
2023-04-30T22:00:06.594Z,4.75
2023-04-30T22:02:34.042Z,5.45
2023-04-30T22:05:01.818Z,3.22
2023-04-30T22:07:29.872Z,5.40
2023-04-30T22:09:57.577Z,7.50
2023-04-30T22:12:25.413Z,3.47
2023-04-30T22:14:56.063Z,4.93
2023-04-30T22:17:23.708Z,7.25
2023-04-30T22:19:51.318Z,9.38
2023-04-30T22:22:18.644Z,3.92
2023-04-30T22:24:46.205Z,5.07
2023-04-30T22:27:13.594Z,3.00
2023-04-30T22:29:41.361Z,4.68
2023-04-30T22:32:09.570Z,5.72
2023-04-30T22:34:39.002Z,7.95
2023-04-30T22:37:06.587Z,6.70
2023-04-30T22:39:33.926Z,7.93
2023-04-30T22:42:01.287Z,4.10
2023-04-30T22:44:29.520Z,3.58
2023-04-30T22:46:58.234Z,5.22
2023-04-30T22:49:31.279Z,4.90
2023-04-30T22:51:59.627Z,4.78
2023-04-30T22:54:27.103Z,6.30
2023-04-30T22:56:54.474Z,4.82
2023-04-30T22:59:21.904Z,3.83
2023-04-30T23:01:49.502Z,4.18
2023-04-30T23:04:17.061Z,6.55
2023-04-30T23:06:44.491Z,6.40
2023-04-30T23:09:12.852Z,5.30
2023-04-30T23:11:40.185Z,5.32
2023-04-30T23:14:08.361Z,5.38
2023-04-30T23:16:35.860Z,5.90
2023-04-30T23:19:03.230Z,4.50
2023-04-30T23:21:31.409Z,4.18
2023-04-30T23:23:58.712Z,4.18
2023-04-30T23:26:26.096Z,4.53
2023-04-30T23:28:55.376Z,3.58
2023-04-30T23:31:22.905Z,5.28
2023-04-30T23:33:50.195Z,3.53
2023-04-30T23:36:17.601Z,7.03
2023-04-30T23:38:46.765Z,5.82
2023-04-30T23:41:14.727Z,7.15
2023-04-30T23:43:42.119Z,4.80
2023-04-30T23:46:09.632Z,5.32
2023-04-30T23:48:37.517Z,3.63
2023-04-30T23:51:05.771Z,6.65
2023-04-30T23:53:33.098Z,3.35
2023-04-30T23:56:00.456Z,4.28
2023-04-30T23:58:30.143Z,6.82
